»·PEaware :: SWA2114 KABQ-KPHX

SWA2114 :: KABQ-KPHX

FLIGHT INFORMATION

Flight Status: Arrived
Operator:
Southwest Airlines
More flights by this operator :: More flights under this callsign
Pilot: Anonymous 3069 (3069)
Aircraft: BOEING 737-200
(B732)
More flights by this aircraft type
Origin: KABQ Albuquerque Intl Sunport
United States
Destination: KPHX Phoenix Sky Harbor Intl
United States
More flights between these airports :: More routes between these airports
Route: LARGO3 ZUN BUNTR3
File this flight plan on PilotEdge
Remarks: I WILL GET THIS WRONG, PLS 4GIV
Altitude:
(Current/Filed)
32,000ft
Speed:
(Current/Filed)
460kts
Departed: 13-Jan-18 01:18 PM
Arrived: 13-Jan-18 02:20 PM
Distance/Time
Traveled:
284nm/1:02
Distance/Time
To Go:
Arrived

Flight Plot

Page will automatically refresh every two minutes.

Flight plan parsing failed; only flown route is shown


Map Options




Map Legend


Flown Route
Filed Route
Departure Airport
Arrival Airport
Navaid (VOR, NDB)
Fix

Horizontal Profiles

Position Reports

Time Latitude Longitude Heading Altitude Ground
Speed
13-Jan-18 12:40 35.046882 -106.614902 11 5363ft 0kts
13-Jan-18 12:41 35.046882 -106.614902 11 5363ft 0kts
13-Jan-18 12:42 35.046882 -106.614902 11 5363ft 0kts
13-Jan-18 12:43 35.046882 -106.614902 11 5363ft 0kts
13-Jan-18 12:44 35.046882 -106.614902 11 5363ft 0kts
13-Jan-18 12:45 35.046882 -106.614902 11 5363ft 0kts
13-Jan-18 12:46 35.046882 -106.614902 11 5363ft 0kts
13-Jan-18 12:47 35.046882 -106.614902 11 5363ft 0kts
13-Jan-18 12:48 35.046882 -106.614902 11 5363ft 0kts
13-Jan-18 12:49 35.046882 -106.614902 11 5363ft 0kts
13-Jan-18 12:51 35.046882 -106.614902 11 5363ft 0kts
13-Jan-18 12:52 35.046882 -106.614902 11 5363ft 0kts
13-Jan-18 12:59 35.046939 -106.616392 11 5363ft 0kts
13-Jan-18 13:00 35.046967 -106.614501 342 5363ft 0kts
13-Jan-18 13:01 35.046967 -106.614501 342 5363ft 0kts
13-Jan-18 13:02 35.046967 -106.614501 342 5363ft 0kts
13-Jan-18 13:03 35.046967 -106.614501 342 5363ft 0kts
13-Jan-18 13:04 35.046967 -106.614501 342 5363ft 0kts
13-Jan-18 13:05 35.046967 -106.614501 342 5363ft 0kts
13-Jan-18 13:06 35.046967 -106.614501 342 5363ft 0kts
13-Jan-18 13:07 35.046967 -106.614501 342 5363ft 0kts
13-Jan-18 13:08 35.046967 -106.614501 342 5363ft 0kts
13-Jan-18 13:09 35.046967 -106.614501 342 5363ft 0kts
13-Jan-18 13:10 35.046967 -106.614501 342 5363ft 0kts
13-Jan-18 13:11 35.046967 -106.614501 342 5363ft 0kts
13-Jan-18 13:12 35.046967 -106.614501 342 5363ft 0kts
13-Jan-18 13:13 35.046967 -106.614501 341 5363ft 0kts
13-Jan-18 13:14 35.046663 -106.614293 347 5363ft 2kts
13-Jan-18 13:15 35.046363 -106.614668 92 5363ft 0kts
13-Jan-18 13:16 35.046363 -106.614667 92 5363ft 0kts
13-Jan-18 13:17 35.046363 -106.614664 93 5363ft 0kts
13-Jan-18 13:18 35.046002 -106.614591 182 5363ft 0kts
13-Jan-18 13:19 35.045577 -106.619472 270 5363ft 22kts
13-Jan-18 13:20 35.045202 -106.621384 184 5363ft 0kts
13-Jan-18 13:21 35.044353 -106.621058 91 5363ft 0kts
13-Jan-18 13:22 35.044353 -106.621058 91 5363ft 0kts
13-Jan-18 13:23 35.044346 -106.620668 90 5363ft 24kts
13-Jan-18 13:24 35.044614 -106.577057 89 6331ft 173kts
13-Jan-18 13:25 34.998904 -106.546945 177 7750ft 243kts
13-Jan-18 13:26 34.925440 -106.546734 209 10112ft 285kts
13-Jan-18 13:27 34.904698 -106.629088 277 13148ft 280kts
13-Jan-18 13:28 34.914228 -106.724400 278 15871ft 289kts
13-Jan-18 13:29 34.923493 -106.823183 278 18274ft 299kts
13-Jan-18 13:30 34.932796 -106.925419 278 20325ft 310kts
13-Jan-18 13:31 34.942375 -107.031653 278 22146ft 321kts
13-Jan-18 13:32 34.952025 -107.141396 278 23838ft 329kts
13-Jan-18 13:33 34.961332 -107.253402 278 25364ft 337kts
13-Jan-18 13:34 34.970360 -107.368082 278 26819ft 344kts
13-Jan-18 13:35 34.979385 -107.485377 279 28108ft 351kts
13-Jan-18 13:36 34.988564 -107.604685 279 29260ft 357kts
13-Jan-18 13:37 34.998860 -107.724579 289 30278ft 359kts
13-Jan-18 13:38 35.038236 -107.832126 268 31188ft 372kts
13-Jan-18 13:39 35.013180 -107.956809 266 31992ft 379kts
13-Jan-18 13:40 35.002930 -108.085999 270 32423ft 391kts
13-Jan-18 13:41 34.996621 -108.219400 271 32415ft 396kts
13-Jan-18 13:42 34.991031 -108.353668 271 32419ft 396kts
13-Jan-18 13:43 34.985470 -108.487493 271 32425ft 397kts
13-Jan-18 13:44 34.979890 -108.618683 271 32427ft 397kts
13-Jan-18 13:45 34.975098 -108.750775 268 32432ft 399kts
13-Jan-18 13:46 34.961575 -108.882716 276 32427ft 394kts
13-Jan-18 13:47 34.960600 -109.017322 271 32418ft 398kts
13-Jan-18 13:48 34.955330 -109.152115 271 32408ft 400kts
13-Jan-18 13:49 34.923586 -109.281262 247 32404ft 411kts
13-Jan-18 13:50 34.874653 -109.405448 248 32399ft 412kts
13-Jan-18 13:51 34.827107 -109.532031 249 32398ft 412kts
13-Jan-18 13:52 34.780488 -109.657844 249 32399ft 412kts
13-Jan-18 13:53 34.736882 -109.774708 249 32408ft 413kts
13-Jan-18 13:54 34.689646 -109.901510 249 32417ft 413kts
13-Jan-18 13:55 34.642164 -110.028621 249 32420ft 414kts
13-Jan-18 13:56 34.594478 -110.155807 249 32420ft 414kts
13-Jan-18 13:57 34.546628 -110.282934 249 32419ft 415kts
13-Jan-18 13:58 34.498587 -110.410074 249 32419ft 415kts
13-Jan-18 13:59 34.450785 -110.535912 249 31831ft 409kts
13-Jan-18 14:00 34.404035 -110.658202 248 30097ft 403kts
13-Jan-18 14:01 34.358622 -110.779857 244 28366ft 397kts
13-Jan-18 14:02 34.291549 -110.884706 231 26712ft 393kts
13-Jan-18 14:03 34.218955 -110.980937 229 25004ft 381kts
13-Jan-18 14:04 34.147752 -111.072403 228 23121ft 369kts
13-Jan-18 14:05 34.078638 -111.160459 228 21269ft 358kts
13-Jan-18 14:06 34.011141 -111.246078 228 19419ft 349kts
13-Jan-18 14:07 33.945092 -111.329536 228 17596ft 340kts
13-Jan-18 14:08 33.879934 -111.411584 227 15069ft 342kts
13-Jan-18 14:09 33.822876 -111.487975 235 14275ft 282kts
13-Jan-18 14:10 33.774018 -111.568010 235 13789ft 319kts
13-Jan-18 14:11 33.722871 -111.652192 234 13153ft 307kts
13-Jan-18 14:12 33.673481 -111.733977 234 12050ft 292kts
13-Jan-18 14:13 33.633925 -111.799594 234 12054ft 292kts
13-Jan-18 14:14 33.586099 -111.878909 234 12025ft 296kts
13-Jan-18 14:15 33.537624 -111.959303 235 12016ft 299kts
13-Jan-18 14:16 33.500614 -112.044996 268 11929ft 290kts
13-Jan-18 14:17 33.499549 -112.141076 270 9173ft 288kts
13-Jan-18 14:18 33.498564 -112.228936 270 7690ft 245kts
13-Jan-18 14:19 33.498556 -112.310504 282 6250ft 242kts
13-Jan-18 14:20 33.460565 -112.360179 165 5706ft 251kts
13-Jan-18 14:21 33.438030 -112.291839 84 5518ft 260kts
13-Jan-18 14:22 33.440690 -112.204950 88 4094ft 247kts
13-Jan-18 14:23 33.440859 -112.130412 87 2877ft 194kts
13-Jan-18 14:24 33.440830 -112.079107 87 1992ft 130kts
13-Jan-18 14:25 33.440821 -112.034917 86 1314ft 132kts
13-Jan-18 14:26 33.440816 -112.003524 90 1143ft 36kts
13-Jan-18 14:27 33.440120 -112.001177 159 1143ft 3kts
13-Jan-18 14:28 33.438649 -112.003783 190 1143ft 15kts
13-Jan-18 14:29 33.433385 -112.003795 178 1143ft 20kts
13-Jan-18 14:30 33.432921 -111.998499 63 1143ft 8kts
13-Jan-18 14:31 33.434078 -111.998768 291 1143ft 0kts

Navigation Log

Ident Type
Flight plan parsing failed, navigation log unavailable